sensor_id;sensor_type;location;lat;lon;timestamp;pressure;altitude;pressure_sealevel;temperature;humidity
46241;BME280;31961;52.416;-0.732;2023-03-23T00:00:46;98480.69;;;4.29;100.00
46241;BME280;31961;52.416;-0.732;2023-03-23T00:03:13;98480.01;;;4.28;100.00
46241;BME280;31961;52.416;-0.732;2023-03-23T00:05:41;98497.26;;;3.95;100.00
46241;BME280;31961;52.416;-0.732;2023-03-23T00:08:09;98498.19;;;4.20;100.00
46241;BME280;31961;52.416;-0.732;2023-03-23T00:10:36;98499.40;;;4.06;100.00
46241;BME280;31961;52.416;-0.732;2023-03-23T00:13:04;98502.67;;;4.04;100.00
46241;BME280;31961;52.416;-0.732;2023-03-23T00:15:32;98500.21;;;4.04;100.00
46241;BME280;31961;52.416;-0.732;2023-03-23T00:18:00;98501.46;;;3.76;100.00
46241;BME280;31961;52.416;-0.732;2023-03-23T00:20:27;98504.60;;;3.84;100.00
46241;BME280;31961;52.416;-0.732;2023-03-23T00:22:55;98504.11;;;4.11;100.00
46241;BME280;31961;52.416;-0.732;2023-03-23T00:25:22;98502.21;;;3.90;100.00
46241;BME280;31961;52.416;-0.732;2023-03-23T00:27:50;98511.16;;;3.95;100.00
46241;BME280;31961;52.416;-0.732;2023-03-23T00:30:18;98515.10;;;4.10;100.00
46241;BME280;31961;52.416;-0.732;2023-03-23T00:32:45;98520.65;;;3.87;100.00
46241;BME280;31961;52.416;-0.732;2023-03-23T00:35:13;98520.48;;;4.19;100.00
46241;BME280;31961;52.416;-0.732;2023-03-23T00:37:40;98518.44;;;4.33;100.00
46241;BME280;31961;52.416;-0.732;2023-03-23T00:40:09;98524.70;;;4.24;100.00
46241;BME280;31961;52.416;-0.732;2023-03-23T00:42:36;98522.69;;;3.86;100.00
46241;BME280;31961;52.416;-0.732;2023-03-23T00:45:05;98519.19;;;4.19;100.00
46241;BME280;31961;52.416;-0.732;2023-03-23T00:47:32;98526.24;;;4.21;100.00
46241;BME280;31961;52.416;-0.732;2023-03-23T00:50:00;98519.49;;;3.92;100.00
46241;BME280;31961;52.416;-0.732;2023-03-23T00:52:28;98525.19;;;3.98;100.00
46241;BME280;31961;52.416;-0.732;2023-03-23T00:54:55;98525.19;;;3.69;100.00
46241;BME280;31961;52.416;-0.732;2023-03-23T00:57:23;98521.94;;;4.54;100.00
46241;BME280;31961;52.416;-0.732;2023-03-23T00:59:50;98517.32;;;4.26;100.00
46241;BME280;31961;52.416;-0.732;2023-03-23T01:02:18;98517.20;;;4.10;100.00
46241;BME280;31961;52.416;-0.732;2023-03-23T01:04:45;98526.31;;;4.29;100.00
46241;BME280;31961;52.416;-0.732;2023-03-23T01:07:13;98536.91;;;3.90;100.00
46241;BME280;31961;52.416;-0.732;2023-03-23T01:09:41;98542.93;;;3.77;100.00
46241;BME280;31961;52.416;-0.732;2023-03-23T01:12:08;98552.47;;;4.30;100.00
46241;BME280;31961;52.416;-0.732;2023-03-23T01:14:36;98545.26;;;3.91;100.00
46241;BME280;31961;52.416;-0.732;2023-03-23T01:17:04;98566.03;;;3.87;100.00
46241;BME280;31961;52.416;-0.732;2023-03-23T01:19:31;98564.27;;;4.30;100.00
46241;BME280;31961;52.416;-0.732;2023-03-23T01:21:58;98568.30;;;4.50;100.00
46241;BME280;31961;52.416;-0.732;2023-03-23T01:24:26;98573.91;;;4.47;100.00
46241;BME280;31961;52.416;-0.732;2023-03-23T01:26:54;98571.74;;;3.93;100.00
46241;BME280;31961;52.416;-0.732;2023-03-23T01:29:21;98577.06;;;3.95;100.00
46241;BME280;31961;52.416;-0.732;2023-03-23T01:31:49;98575.63;;;3.58;100.00
46241;BME280;31961;52.416;-0.732;2023-03-23T01:34:16;98581.88;;;3.66;100.00
46241;BME280;31961;52.416;-0.732;2023-03-23T01:36:44;98587.79;;;3.45;100.00
46241;BME280;31961;52.416;-0.732;2023-03-23T01:39:12;98585.33;;;3.72;100.00
46241;BME280;31961;52.416;-0.732;2023-03-23T01:41:39;98587.79;;;3.98;100.00
46241;BME280;31961;52.416;-0.732;2023-03-23T01:44:59;98584.54;;;3.94;100.00
46241;BME280;31961;52.416;-0.732;2023-03-23T01:47:44;98596.84;;;3.67;100.00
46241;BME280;31961;52.416;-0.732;2023-03-23T01:50:12;98596.73;;;4.05;100.00
46241;BME280;31961;52.416;-0.732;2023-03-23T01:52:40;98600.64;;;3.75;100.00
46241;BME280;31961;52.416;-0.732;2023-03-23T01:55:08;98602.39;;;3.65;100.00
46241;BME280;31961;52.416;-0.732;2023-03-23T01:57:36;98607.30;;;3.43;100.00
46241;BME280;31961;52.416;-0.732;2023-03-23T02:00:07;98603.77;;;3.97;100.00
46241;BME280;31961;52.416;-0.732;2023-03-23T02:02:36;98609.49;;;3.64;100.00
46241;BME280;31961;52.416;-0.732;2023-03-23T02:05:10;98615.21;;;3.72;100.00
46241;BME280;31961;52.416;-0.732;2023-03-23T02:07:38;98615.41;;;3.61;100.00
46241;BME280;31961;52.416;-0.732;2023-03-23T02:10:06;98617.03;;;3.49;100.00
46241;BME280;31961;52.416;-0.732;2023-03-23T02:12:33;98632.98;;;3.49;100.00
46241;BME280;31961;52.416;-0.732;2023-03-23T02:15:01;98626.41;;;4.02;100.00
46241;BME280;31961;52.416;-0.732;2023-03-23T02:17:33;98634.36;;;3.21;100.00
46241;BME280;31961;52.416;-0.732;2023-03-23T02:20:18;98636.58;;;3.16;100.00
46241;BME280;31961;52.416;-0.732;2023-03-23T02:23:08;98634.92;;;3.28;100.00
46241;BME280;31961;52.416;-0.732;2023-03-23T02:25:52;98639.45;;;3.17;100.00
46241;BME280;31961;52.416;-0.732;2023-03-23T02:28:36;98662.80;;;3.48;100.00
46241;BME280;31961;52.416;-0.732;2023-03-23T02:31:20;98650.81;;;3.37;100.00
46241;BME280;31961;52.416;-0.732;2023-03-23T02:33:54;98665.19;;;3.36;100.00
46241;BME280;31961;52.416;-0.732;2023-03-23T02:36:27;98657.44;;;3.34;100.00
46241;BME280;31961;52.416;-0.732;2023-03-23T02:39:00;98664.44;;;3.36;100.00
46241;BME280;31961;52.416;-0.732;2023-03-23T02:41:31;98660.33;;;3.39;100.00
46241;BME280;31961;52.416;-0.732;2023-03-23T02:44:02;98660.49;;;3.94;100.00
46241;BME280;31961;52.416;-0.732;2023-03-23T02:46:30;98661.88;;;3.33;100.00
46241;BME280;31961;52.416;-0.732;2023-03-23T02:48:59;98662.21;;;3.62;100.00
46241;BME280;31961;52.416;-0.732;2023-03-23T02:51:28;98662.96;;;3.31;100.00
46241;BME280;31961;52.416;-0.732;2023-03-23T02:53:58;98663.11;;;3.16;100.00
46241;BME280;31961;52.416;-0.732;2023-03-23T02:56:27;98663.46;;;3.10;100.00
46241;BME280;31961;52.416;-0.732;2023-03-23T02:58:55;98667.21;;;3.24;100.00
46241;BME280;31961;52.416;-0.732;2023-03-23T03:02:29;98662.81;;;3.31;100.00
46241;BME280;31961;52.416;-0.732;2023-03-23T03:05:03;98660.08;;;3.02;100.00
46241;BME280;31961;52.416;-0.732;2023-03-23T03:07:48;98661.36;;;3.06;100.00
46241;BME280;31961;52.416;-0.732;2023-03-23T03:10:22;98659.88;;;2.94;100.00
46241;BME280;31961;52.416;-0.732;2023-03-23T03:12:55;98658.97;;;3.24;100.00
46241;BME280;31961;52.416;-0.732;2023-03-23T03:15:29;98660.00;;;3.33;100.00
46241;BME280;31961;52.416;-0.732;2023-03-23T03:18:04;98660.77;;;2.99;100.00
46241;BME280;31961;52.416;-0.732;2023-03-23T03:20:37;98666.26;;;2.82;100.00
46241;BME280;31961;52.416;-0.732;2023-03-23T03:23:05;98660.53;;;3.21;100.00
46241;BME280;31961;52.416;-0.732;2023-03-23T03:25:34;98665.08;;;2.55;100.00
46241;BME280;31961;52.416;-0.732;2023-03-23T03:28:02;98668.68;;;2.98;100.00
46241;BME280;31961;52.416;-0.732;2023-03-23T03:30:32;98672.76;;;2.70;100.00
46241;BME280;31961;52.416;-0.732;2023-03-23T03:33:02;98675.02;;;2.73;100.00
46241;BME280;31961;52.416;-0.732;2023-03-23T03:35:30;98674.45;;;2.83;100.00
46241;BME280;31961;52.416;-0.732;2023-03-23T03:38:05;98672.29;;;3.59;100.00
46241;BME280;31961;52.416;-0.732;2023-03-23T03:40:33;98679.23;;;2.64;100.00
46241;BME280;31961;52.416;-0.732;2023-03-23T03:43:01;98682.61;;;2.84;100.00
46241;BME280;31961;52.416;-0.732;2023-03-23T03:45:29;98690.60;;;2.64;100.00
46241;BME280;31961;52.416;-0.732;2023-03-23T03:47:56;98690.43;;;2.81;100.00
46241;BME280;31961;52.416;-0.732;2023-03-23T03:50:24;98691.15;;;2.37;100.00
46241;BME280;31961;52.416;-0.732;2023-03-23T03:52:52;98694.35;;;2.86;100.00
46241;BME280;31961;52.416;-0.732;2023-03-23T03:55:19;98688.11;;;2.60;100.00
46241;BME280;31961;52.416;-0.732;2023-03-23T03:57:47;98690.63;;;2.55;100.00
46241;BME280;31961;52.416;-0.732;2023-03-23T04:00:15;98688.37;;;2.35;100.00
46241;BME280;31961;52.416;-0.732;2023-03-23T04:02:45;98699.83;;;2.22;100.00
46241;BME280;31961;52.416;-0.732;2023-03-23T04:05:12;98696.41;;;2.42;100.00
46241;BME280;31961;52.416;-0.732;2023-03-23T04:07:39;98693.28;;;2.99;100.00
46241;BME280;31961;52.416;-0.732;2023-03-23T04:10:09;98690.54;;;2.94;100.00
46241;BME280;31961;52.416;-0.732;2023-03-23T04:12:36;98688.86;;;2.62;100.00
46241;BME280;31961;52.416;-0.732;2023-03-23T04:15:04;98691.65;;;2.16;100.00
46241;BME280;31961;52.416;-0.732;2023-03-23T04:17:32;98692.30;;;2.39;100.00
46241;BME280;31961;52.416;-0.732;2023-03-23T04:19:59;98700.28;;;2.73;100.00
46241;BME280;31961;52.416;-0.732;2023-03-23T04:22:27;98703.47;;;2.26;100.00
46241;BME280;31961;52.416;-0.732;2023-03-23T04:24:54;98707.87;;;2.34;100.00
46241;BME280;31961;52.416;-0.732;2023-03-23T04:27:22;98707.58;;;2.47;100.00
46241;BME280;31961;52.416;-0.732;2023-03-23T04:29:49;98709.47;;;2.68;100.00
46241;BME280;31961;52.416;-0.732;2023-03-23T04:32:17;98709.56;;;2.50;100.00
46241;BME280;31961;52.416;-0.732;2023-03-23T04:34:44;98715.31;;;2.09;100.00
46241;BME280;31961;52.416;-0.732;2023-03-23T04:37:12;98707.59;;;2.42;100.00
46241;BME280;31961;52.416;-0.732;2023-03-23T04:39:39;98711.05;;;2.31;100.00
46241;BME280;31961;52.416;-0.732;2023-03-23T04:42:07;98711.94;;;2.78;100.00
46241;BME280;31961;52.416;-0.732;2023-03-23T04:44:35;98713.92;;;2.36;100.00
46241;BME280;31961;52.416;-0.732;2023-03-23T04:47:02;98721.59;;;1.93;100.00
46241;BME280;31961;52.416;-0.732;2023-03-23T04:49:30;98720.93;;;1.95;100.00
46241;BME280;31961;52.416;-0.732;2023-03-23T04:51:57;98718.94;;;2.64;100.00
46241;BME280;31961;52.416;-0.732;2023-03-23T04:54:25;98719.37;;;2.45;100.00
46241;BME280;31961;52.416;-0.732;2023-03-23T04:56:53;98718.28;;;3.29;100.00
46241;BME280;31961;52.416;-0.732;2023-03-23T04:59:20;98719.24;;;2.58;100.00
46241;BME280;31961;52.416;-0.732;2023-03-23T05:01:48;98720.60;;;3.27;100.00
46241;BME280;31961;52.416;-0.732;2023-03-23T05:04:15;98717.09;;;3.13;100.00
46241;BME280;31961;52.416;-0.732;2023-03-23T05:06:43;98717.58;;;2.97;100.00
46241;BME280;31961;52.416;-0.732;2023-03-23T05:09:11;98719.86;;;3.34;100.00
46241;BME280;31961;52.416;-0.732;2023-03-23T05:11:38;98731.57;;;2.81;100.00
46241;BME280;31961;52.416;-0.732;2023-03-23T05:14:06;98740.93;;;2.30;100.00
46241;BME280;31961;52.416;-0.732;2023-03-23T05:16:33;98737.53;;;2.86;100.00
46241;BME280;31961;52.416;-0.732;2023-03-23T05:19:01;98737.33;;;2.61;100.00
46241;BME280;31961;52.416;-0.732;2023-03-23T05:21:28;98740.73;;;2.72;100.00
46241;BME280;31961;52.416;-0.732;2023-03-23T05:23:55;98735.94;;;2.72;100.00
46241;BME280;31961;52.416;-0.732;2023-03-23T05:26:22;98741.09;;;2.45;100.00
46241;BME280;31961;52.416;-0.732;2023-03-23T05:28:49;98741.14;;;1.91;100.00
46241;BME280;31961;52.416;-0.732;2023-03-23T05:31:17;98744.82;;;2.16;100.00
46241;BME280;31961;52.416;-0.732;2023-03-23T05:33:45;98746.31;;;2.09;100.00
46241;BME280;31961;52.416;-0.732;2023-03-23T05:36:12;98752.01;;;2.31;100.00
46241;BME280;31961;52.416;-0.732;2023-03-23T05:38:39;98752.87;;;1.99;100.00
46241;BME280;31961;52.416;-0.732;2023-03-23T05:41:06;98747.66;;;2.52;100.00
46241;BME280;31961;52.416;-0.732;2023-03-23T05:43:34;98757.56;;;2.10;100.00
46241;BME280;31961;52.416;-0.732;2023-03-23T05:46:02;98753.19;;;2.50;100.00
46241;BME280;31961;52.416;-0.732;2023-03-23T05:48:29;98754.19;;;2.11;100.00
46241;BME280;31961;52.416;-0.732;2023-03-23T05:50:55;98750.32;;;2.25;100.00
46241;BME280;31961;52.416;-0.732;2023-03-23T05:53:23;98751.41;;;2.40;100.00
46241;BME280;31961;52.416;-0.732;2023-03-23T05:55:50;98756.02;;;2.20;100.00
46241;BME280;31961;52.416;-0.732;2023-03-23T05:58:17;98744.50;;;2.46;100.00
46241;BME280;31961;52.416;-0.732;2023-03-23T06:00:44;98751.42;;;1.78;100.00
46241;BME280;31961;52.416;-0.732;2023-03-23T06:03:11;98746.90;;;1.93;100.00
46241;BME280;31961;52.416;-0.732;2023-03-23T06:05:42;98739.22;;;2.53;100.00
46241;BME280;31961;52.416;-0.732;2023-03-23T06:08:09;98733.80;;;2.71;100.00
46241;BME280;31961;52.416;-0.732;2023-03-23T06:10:37;98736.87;;;2.15;100.00
46241;BME280;31961;52.416;-0.732;2023-03-23T06:13:04;98739.88;;;2.16;100.00
46241;BME280;31961;52.416;-0.732;2023-03-23T06:15:32;98740.65;;;2.96;100.00
46241;BME280;31961;52.416;-0.732;2023-03-23T06:17:59;98734.67;;;3.22;100.00
46241;BME280;31961;52.416;-0.732;2023-03-23T06:20:27;98733.90;;;3.14;100.00
46241;BME280;31961;52.416;-0.732;2023-03-23T06:22:54;98736.02;;;2.81;100.00
46241;BME280;31961;52.416;-0.732;2023-03-23T06:25:22;98732.31;;;2.45;100.00
46241;BME280;31961;52.416;-0.732;2023-03-23T06:27:49;98730.33;;;3.09;100.00
46241;BME280;31961;52.416;-0.732;2023-03-23T06:30:18;98732.92;;;2.62;100.00
46241;BME280;31961;52.416;-0.732;2023-03-23T06:32:45;98734.19;;;2.91;100.00
46241;BME280;31961;52.416;-0.732;2023-03-23T06:35:13;98731.62;;;2.65;100.00
46241;BME280;31961;52.416;-0.732;2023-03-23T06:37:40;98725.68;;;3.25;100.00
46241;BME280;31961;52.416;-0.732;2023-03-23T06:40:08;98722.08;;;3.89;100.00
46241;BME280;31961;52.416;-0.732;2023-03-23T06:42:36;98725.12;;;3.14;100.00
46241;BME280;31961;52.416;-0.732;2023-03-23T06:45:05;98731.19;;;3.77;100.00
46241;BME280;31961;52.416;-0.732;2023-03-23T06:47:33;98734.11;;;3.58;100.00
46241;BME280;31961;52.416;-0.732;2023-03-23T06:50:00;98726.49;;;4.32;100.00
46241;BME280;31961;52.416;-0.732;2023-03-23T06:52:27;98723.92;;;3.22;100.00
46241;BME280;31961;52.416;-0.732;2023-03-23T06:54:55;98727.15;;;3.29;100.00
46241;BME280;31961;52.416;-0.732;2023-03-23T06:57:22;98728.89;;;3.79;100.00
46241;BME280;31961;52.416;-0.732;2023-03-23T06:59:50;98727.30;;;2.90;100.00
46241;BME280;31961;52.416;-0.732;2023-03-23T07:02:17;98723.95;;;4.06;100.00
46241;BME280;31961;52.416;-0.732;2023-03-23T07:04:44;98734.24;;;3.86;100.00
46241;BME280;31961;52.416;-0.732;2023-03-23T07:07:12;98727.67;;;4.22;100.00
46241;BME280;31961;52.416;-0.732;2023-03-23T07:09:40;98727.17;;;3.34;100.00
46241;BME280;31961;52.416;-0.732;2023-03-23T07:12:07;98724.05;;;3.60;100.00
46241;BME280;31961;52.416;-0.732;2023-03-23T07:14:35;98724.02;;;3.89;100.00
46241;BME280;31961;52.416;-0.732;2023-03-23T07:17:03;98724.09;;;4.24;100.00
46241;BME280;31961;52.416;-0.732;2023-03-23T07:19:31;98731.12;;;4.60;100.00
46241;BME280;31961;52.416;-0.732;2023-03-23T07:21:58;98730.89;;;4.25;100.00
46241;BME280;31961;52.416;-0.732;2023-03-23T07:24:26;98727.92;;;3.97;100.00
46241;BME280;31961;52.416;-0.732;2023-03-23T07:26:53;98725.28;;;5.12;100.00
46241;BME280;31961;52.416;-0.732;2023-03-23T07:29:20;98721.79;;;3.84;100.00
46241;BME280;31961;52.416;-0.732;2023-03-23T07:31:48;98726.72;;;5.18;100.00
46241;BME280;31961;52.416;-0.732;2023-03-23T07:34:15;98719.27;;;4.93;100.00
46241;BME280;31961;52.416;-0.732;2023-03-23T07:36:43;98724.80;;;3.79;100.00
46241;BME280;31961;52.416;-0.732;2023-03-23T07:39:10;98723.52;;;4.22;100.00
46241;BME280;31961;52.416;-0.732;2023-03-23T07:41:37;98726.83;;;3.72;100.00
46241;BME280;31961;52.416;-0.732;2023-03-23T07:44:05;98715.60;;;4.39;100.00
46241;BME280;31961;52.416;-0.732;2023-03-23T07:46:32;98714.88;;;4.18;100.00
46241;BME280;31961;52.416;-0.732;2023-03-23T07:48:59;98725.45;;;3.64;100.00
46241;BME280;31961;52.416;-0.732;2023-03-23T07:51:27;98733.84;;;3.74;100.00
46241;BME280;31961;52.416;-0.732;2023-03-23T07:53:54;98734.25;;;3.67;100.00
46241;BME280;31961;52.416;-0.732;2023-03-23T07:56:22;98734.76;;;4.03;100.00
46241;BME280;31961;52.416;-0.732;2023-03-23T07:58:49;98736.97;;;4.19;100.00
46241;BME280;31961;52.416;-0.732;2023-03-23T08:01:17;98721.90;;;4.20;100.00
46241;BME280;31961;52.416;-0.732;2023-03-23T08:03:44;98720.60;;;4.57;100.00
46241;BME280;31961;52.416;-0.732;2023-03-23T08:06:12;98721.26;;;4.79;100.00
46241;BME280;31961;52.416;-0.732;2023-03-23T08:08:39;98721.89;;;5.12;100.00
46241;BME280;31961;52.416;-0.732;2023-03-23T08:11:07;98720.71;;;4.68;100.00
46241;BME280;31961;52.416;-0.732;2023-03-23T08:13:34;98715.82;;;5.03;100.00
46241;BME280;31961;52.416;-0.732;2023-03-23T08:16:02;98714.82;;;5.25;100.00
46241;BME280;31961;52.416;-0.732;2023-03-23T08:18:28;98716.69;;;4.84;100.00
46241;BME280;31961;52.416;-0.732;2023-03-23T08:20:56;98733.09;;;4.83;100.00
46241;BME280;31961;52.416;-0.732;2023-03-23T08:23:23;98729.85;;;5.04;100.00
46241;BME280;31961;52.416;-0.732;2023-03-23T08:25:50;98727.98;;;5.01;100.00
46241;BME280;31961;52.416;-0.732;2023-03-23T08:28:18;98718.11;;;4.79;100.00
46241;BME280;31961;52.416;-0.732;2023-03-23T08:30:44;98718.23;;;4.76;100.00
46241;BME280;31961;52.416;-0.732;2023-03-23T08:33:12;98730.71;;;4.85;100.00
46241;BME280;31961;52.416;-0.732;2023-03-23T08:35:40;98730.27;;;5.08;100.00
46241;BME280;31961;52.416;-0.732;2023-03-23T08:38:07;98720.42;;;5.23;100.00
46241;BME280;31961;52.416;-0.732;2023-03-23T08:40:34;98714.88;;;5.73;100.00
46241;BME280;31961;52.416;-0.732;2023-03-23T08:43:02;98711.40;;;5.61;100.00
46241;BME280;31961;52.416;-0.732;2023-03-23T08:45:30;98714.31;;;5.69;100.00
46241;BME280;31961;52.416;-0.732;2023-03-23T08:47:57;98720.28;;;5.32;100.00
46241;BME280;31961;52.416;-0.732;2023-03-23T08:50:26;98715.33;;;5.38;100.00
46241;BME280;31961;52.416;-0.732;2023-03-23T08:52:54;98716.62;;;5.44;100.00
46241;BME280;31961;52.416;-0.732;2023-03-23T08:55:22;98706.88;;;5.83;100.00
46241;BME280;31961;52.416;-0.732;2023-03-23T08:57:49;98716.70;;;5.57;100.00
46241;BME280;31961;52.416;-0.732;2023-03-23T09:00:19;98716.26;;;6.04;100.00
46241;BME280;31961;52.416;-0.732;2023-03-23T09:02:48;98719.21;;;5.92;100.00
46241;BME280;31961;52.416;-0.732;2023-03-23T09:05:18;98721.32;;;5.97;100.00
46241;BME280;31961;52.416;-0.732;2023-03-23T09:07:47;98719.15;;;5.73;100.00
46241;BME280;31961;52.416;-0.732;2023-03-23T09:10:16;98718.48;;;6.09;100.00
46241;BME280;31961;52.416;-0.732;2023-03-23T09:12:45;98721.78;;;6.09;100.00
46241;BME280;31961;52.416;-0.732;2023-03-23T09:15:15;98726.30;;;5.94;100.00
46241;BME280;31961;52.416;-0.732;2023-03-23T09:17:43;98740.11;;;5.53;100.00
46241;BME280;31961;52.416;-0.732;2023-03-23T09:20:14;98717.30;;;5.50;100.00
46241;BME280;31961;52.416;-0.732;2023-03-23T09:22:44;98722.24;;;5.72;100.00
46241;BME280;31961;52.416;-0.732;2023-03-23T09:25:14;98722.00;;;5.80;100.00
46241;BME280;31961;52.416;-0.732;2023-03-23T09:27:42;98719.01;;;6.05;100.00
46241;BME280;31961;52.416;-0.732;2023-03-23T09:30:12;98730.32;;;6.07;100.00
46241;BME280;31961;52.416;-0.732;2023-03-23T09:32:40;98727.39;;;6.31;100.00
46241;BME280;31961;52.416;-0.732;2023-03-23T09:35:08;98710.96;;;6.39;100.00
46241;BME280;31961;52.416;-0.732;2023-03-23T09:37:36;98724.89;;;6.67;100.00
46241;BME280;31961;52.416;-0.732;2023-03-23T09:40:04;98722.21;;;6.77;100.00
46241;BME280;31961;52.416;-0.732;2023-03-23T09:42:40;98727.60;;;6.37;100.00
46241;BME280;31961;52.416;-0.732;2023-03-23T09:45:19;98731.42;;;6.93;100.00
46241;BME280;31961;52.416;-0.732;2023-03-23T09:48:03;98727.43;;;6.79;100.00
46241;BME280;31961;52.416;-0.732;2023-03-23T09:50:34;98740.76;;;7.13;100.00
46241;BME280;31961;52.416;-0.732;2023-03-23T09:53:09;98739.47;;;6.76;100.00
46241;BME280;31961;52.416;-0.732;2023-03-23T09:55:37;98731.04;;;6.91;100.00
46241;BME280;31961;52.416;-0.732;2023-03-23T09:58:11;98728.88;;;7.07;100.00
46241;BME280;31961;52.416;-0.732;2023-03-23T10:00:46;98725.69;;;7.09;100.00
46241;BME280;31961;52.416;-0.732;2023-03-23T10:03:16;98725.65;;;7.88;100.00
46241;BME280;31961;52.416;-0.732;2023-03-23T10:05:46;98737.49;;;7.25;100.00
46241;BME280;31961;52.416;-0.732;2023-03-23T10:08:18;98752.46;;;7.22;100.00
46241;BME280;31961;52.416;-0.732;2023-03-23T10:10:56;98736.66;;;6.94;100.00
46241;BME280;31961;52.416;-0.732;2023-03-23T10:13:33;98736.45;;;6.76;100.00
46241;BME280;31961;52.416;-0.732;2023-03-23T10:16:07;98735.35;;;6.94;100.00
46241;BME280;31961;52.416;-0.732;2023-03-23T10:18:38;98729.85;;;6.74;100.00
46241;BME280;31961;52.416;-0.732;2023-03-23T10:21:11;98726.35;;;6.92;100.00
46241;BME280;31961;52.416;-0.732;2023-03-23T10:23:51;98730.03;;;6.90;100.00
46241;BME280;31961;52.416;-0.732;2023-03-23T10:26:32;98732.80;;;7.49;100.00
46241;BME280;31961;52.416;-0.732;2023-03-23T10:29:10;98734.82;;;7.32;100.00
46241;BME280;31961;52.416;-0.732;2023-03-23T10:31:39;98726.07;;;7.66;100.00
46241;BME280;31961;52.416;-0.732;2023-03-23T10:34:12;98725.66;;;7.61;100.00
46241;BME280;31961;52.416;-0.732;2023-03-23T10:36:52;98724.53;;;7.97;100.00
46241;BME280;31961;52.416;-0.732;2023-03-23T10:39:24;98732.36;;;7.57;100.00
46241;BME280;31961;52.416;-0.732;2023-03-23T10:41:52;98715.32;;;7.56;100.00
46241;BME280;31961;52.416;-0.732;2023-03-23T10:44:22;98742.99;;;7.56;100.00
46241;BME280;31961;52.416;-0.732;2023-03-23T10:46:53;98725.71;;;7.89;100.00
46241;BME280;31961;52.416;-0.732;2023-03-23T10:49:26;98721.22;;;8.20;100.00
46241;BME280;31961;52.416;-0.732;2023-03-23T10:52:00;98727.28;;;8.50;100.00
46241;BME280;31961;52.416;-0.732;2023-03-23T10:54:36;98741.96;;;8.51;100.00
46241;BME280;31961;52.416;-0.732;2023-03-23T10:57:12;98735.16;;;8.08;100.00
46241;BME280;31961;52.416;-0.732;2023-03-23T10:59:46;98730.10;;;8.46;100.00
46241;BME280;31961;52.416;-0.732;2023-03-23T11:02:17;98732.08;;;8.72;100.00
46241;BME280;31961;52.416;-0.732;2023-03-23T11:04:54;98731.48;;;8.63;100.00
46241;BME280;31961;52.416;-0.732;2023-03-23T11:07:26;98731.82;;;8.49;100.00
46241;BME280;31961;52.416;-0.732;2023-03-23T11:09:55;98737.99;;;8.21;100.00
46241;BME280;31961;52.416;-0.732;2023-03-23T11:12:22;98726.76;;;8.66;100.00
46241;BME280;31961;52.416;-0.732;2023-03-23T11:15:02;98731.94;;;9.18;100.00
46241;BME280;31961;52.416;-0.732;2023-03-23T11:17:29;98728.48;;;9.02;100.00
46241;BME280;31961;52.416;-0.732;2023-03-23T11:19:57;98720.31;;;8.71;100.00
46241;BME280;31961;52.416;-0.732;2023-03-23T11:22:27;98722.84;;;9.25;100.00
46241;BME280;31961;52.416;-0.732;2023-03-23T11:24:58;98726.79;;;9.15;100.00
46241;BME280;31961;52.416;-0.732;2023-03-23T11:27:27;98746.12;;;9.21;100.00
46241;BME280;31961;52.416;-0.732;2023-03-23T11:29:58;98723.88;;;8.84;100.00
46241;BME280;31961;52.416;-0.732;2023-03-23T11:32:29;98733.88;;;8.76;100.00
46241;BME280;31961;52.416;-0.732;2023-03-23T11:34:58;98713.95;;;8.94;100.00
46241;BME280;31961;52.416;-0.732;2023-03-23T11:37:31;98725.29;;;9.15;100.00
46241;BME280;31961;52.416;-0.732;2023-03-23T11:40:00;98718.19;;;8.64;100.00
46241;BME280;31961;52.416;-0.732;2023-03-23T11:42:37;98714.23;;;8.44;100.00
46241;BME280;31961;52.416;-0.732;2023-03-23T11:45:17;98698.85;;;9.02;100.00
46241;BME280;31961;52.416;-0.732;2023-03-23T11:47:56;98702.31;;;8.53;100.00
46241;BME280;31961;52.416;-0.732;2023-03-23T11:50:27;98697.62;;;8.46;100.00
46241;BME280;31961;52.416;-0.732;2023-03-23T11:53:02;98692.73;;;8.39;100.00
46241;BME280;31961;52.416;-0.732;2023-03-23T11:55:55;98709.69;;;8.28;100.00
46241;BME280;31961;52.416;-0.732;2023-03-23T11:58:23;98730.03;;;8.34;100.00
46241;BME280;31961;52.416;-0.732;2023-03-23T12:00:56;98758.68;;;6.44;100.00
46241;BME280;31961;52.416;-0.732;2023-03-23T12:03:33;98763.83;;;4.84;100.00
46241;BME280;31961;52.416;-0.732;2023-03-23T12:06:08;98759.33;;;4.67;100.00
46241;BME280;31961;52.416;-0.732;2023-03-23T12:08:50;98743.48;;;3.97;100.00
46241;BME280;31961;52.416;-0.732;2023-03-23T12:11:25;98734.32;;;4.81;100.00
46241;BME280;31961;52.416;-0.732;2023-03-23T12:14:08;98728.99;;;5.39;100.00
46241;BME280;31961;52.416;-0.732;2023-03-23T12:16:50;98718.13;;;6.13;100.00
46241;BME280;31961;52.416;-0.732;2023-03-23T12:19:24;98724.52;;;6.09;100.00
46241;BME280;31961;52.416;-0.732;2023-03-23T12:21:58;98716.08;;;6.21;100.00
46241;BME280;31961;52.416;-0.732;2023-03-23T12:24:39;98723.96;;;6.02;100.00
46241;BME280;31961;52.416;-0.732;2023-03-23T12:27:13;98713.75;;;6.85;100.00
46241;BME280;31961;52.416;-0.732;2023-03-23T12:29:51;98708.16;;;6.30;100.00
46241;BME280;31961;52.416;-0.732;2023-03-23T12:32:30;98699.39;;;6.87;100.00
46241;BME280;31961;52.416;-0.732;2023-03-23T12:35:09;98698.87;;;6.48;100.00
46241;BME280;31961;52.416;-0.732;2023-03-23T12:37:49;98695.33;;;6.87;100.00
46241;BME280;31961;52.416;-0.732;2023-03-23T12:40:29;98732.68;;;6.89;100.00
46241;BME280;31961;52.416;-0.732;2023-03-23T12:43:03;98694.88;;;6.36;100.00
46241;BME280;31961;52.416;-0.732;2023-03-23T12:46:04;98708.09;;;6.25;100.00
46241;BME280;31961;52.416;-0.732;2023-03-23T12:48:39;98695.40;;;6.12;100.00
46241;BME280;31961;52.416;-0.732;2023-03-23T12:51:15;98685.78;;;6.25;100.00
46241;BME280;31961;52.416;-0.732;2023-03-23T12:53:51;98681.54;;;6.57;100.00
46241;BME280;31961;52.416;-0.732;2023-03-23T12:56:24;98672.47;;;7.07;100.00
46241;BME280;31961;52.416;-0.732;2023-03-23T12:58:58;98664.13;;;7.81;100.00
46241;BME280;31961;52.416;-0.732;2023-03-23T13:01:31;98653.01;;;8.51;100.00
46241;BME280;31961;52.416;-0.732;2023-03-23T13:04:01;98662.58;;;8.81;100.00
46241;BME280;31961;52.416;-0.732;2023-03-23T13:06:36;98648.95;;;8.81;100.00